Latest Weather Observations for Lismore Airport

IDN60801

Issued at 1:05 pm EST Thursday 31 July 2014 (issued every 30 minutes, with the page automatically refreshed every 10 minutes)

About weather observations | Map of weather stations | Latest weather observations for NSW | Other Formats
Station Details ID: 058214 Name: LISMORE AIRPORT AWS Lat: -28.83 Lon: 153.26 Height: 9.21 m
Data from the previous 72 hours. | See also: Recent months for locations in New South Wales
Date/Time
EST
Temp
°C
App
Temp
°C
Dew
Point
Rel
Hum
%
Delta-T
°C
Wind Press
QNH
hPa
Press
MSL
hPa
Rain
since 9 am
mm
Dir
 
Spd
km/h
Gust
km/h
Spd
kts
Gust
kts
31/01:00pm 25.5 20.8 -4.9 13 12.8 NW 11 22 6 12 1015.8 1015.8 0.0
31/12:30pm 25.1 20.9 1.9 22 11.0 N 13 20 7 11 1016.6 - 0.0
31/12:00pm 24.5 21.5 4.3 27 10.0 NNW 9 19 5 10 1017.4 1017.4 0.0
31/11:30am 23.6 20.6 4.0 28 9.6 NNW 9 15 5 8 1018.3 - 0.0
31/11:00am 21.5 19.4 5.8 36 7.8 ENE 6 9 3 5 1019.1 1019.1 0.0
31/10:30am 19.6 19.2 8.3 48 5.9 CALM 0 6 0 3 1019.8 - 0.0
31/10:00am 17.2 15.6 7.8 54 4.7 N 6 9 3 5 1020.2 1020.2 0.0
31/09:30am 14.0 11.8 6.4 60 3.6 N 7 11 4 6 1020.6 - 0.0
31/09:00am 11.5 8.7 6.8 73 2.2 N 11 13 6 7 1020.6 1020.6 0.0
31/08:30am 8.7 5.3 6.0 83 1.2 N 13 17 7 9 1020.6 - 0.0
31/08:00am 6.9 4.2 5.7 92 0.5 N 9 13 5 7 1020.6 1020.6 0.0
31/07:30am 4.7 0.6 4.4 98 0.1 N 15 17 8 9 1020.3 - 0.0
31/07:00am 3.3 -0.3 3.0 98 0.1 N 11 13 6 7 1020.0 1020.0 0.0
31/06:30am 2.5 -0.4 2.4 99 0.0 N 7 7 4 4 1019.8 - 0.0
31/06:00am 2.5 -0.8 2.4 99 0.0 N 9 11 5 6 1019.5 1019.5 0.0
31/05:30am 3.5 0.7 3.4 99 0.0 NNE 7 9 4 5 1019.4 - 0.0
31/05:00am 2.6 -0.4 1.9 95 0.3 N 7 9 4 5 1019.3 1019.3 0.0
31/04:30am 4.1 1.6 3.8 98 0.1 NNE 6 9 3 5 1019.3 - 0.0
31/04:00am 4.4 0.6 3.8 96 0.2 N 13 15 7 8 1019.2 1019.2 0.0
31/03:30am 4.7 0.6 4.3 97 0.2 N 15 17 8 9 1019.1 - 0.0
31/03:00am 4.7 0.6 4.3 97 0.2 N 15 17 8 9 1019.1 1019.1 0.0
31/02:30am 4.5 0.6 3.6 94 0.4 N 13 17 7 9 1019.4 - 0.0
31/02:00am 5.1 1.0 4.5 96 0.3 N 15 19 8 10 1019.6 1019.6 0.0
31/01:30am 5.7 2.0 4.7 93 0.4 N 13 17 7 9 1019.9 - 0.0
31/01:00am 5.2 1.1 4.6 96 0.3 N 15 17 8 9 1020.0 1020.0 0.0
31/12:30am 5.3 2.0 4.6 95 0.3 N 11 15 6 8 1020.0 - 0.0
31/12:00am 5.6 3.8 3.4 86 0.9 NE 2 9 1 5 1020.3 1020.3 0.0
 
Date/Time
EST
Temp
°C
App
Temp
°C
Dew
Point
Rel
Hum
%
Delta-T
°C
Wind Press
QNH
hPa
Press
MSL
hPa
Rain
since 9 am
mm
Dir
 
Spd
km/h
Gust
km/h
Spd
kts
Gust
kts
30/11:30pm 5.9 2.6 4.5 91 0.6 N 11 11 6 6 1020.2 - 0.0
30/11:00pm 7.1 3.9 5.1 87 0.9 N 11 13 6 7 1020.2 1020.2 0.0
30/10:30pm 7.0 4.1 4.5 84 1.1 N 9 13 5 7 1020.1 - 0.0
30/10:00pm 8.0 4.5 5.3 83 1.2 N 13 15 7 8 1019.9 1019.9 0.0
30/09:30pm 8.7 5.1 4.9 77 1.7 N 13 17 7 9 1020.0 - 0.0
30/09:00pm 9.6 5.8 5.6 76 1.8 N 15 17 8 9 1019.9 1019.9 0.0
30/08:30pm 9.9 6.0 5.5 74 2.0 N 15 17 8 9 1019.9 - 0.0
30/08:00pm 10.0 6.6 5.8 75 1.9 N 13 17 7 9 1019.9 1019.9 0.0
30/07:30pm 11.0 7.7 6.2 72 2.2 N 13 15 7 8 1019.8 - 0.0
30/07:00pm 12.2 8.5 6.5 68 2.7 N 15 17 8 9 1019.6 1019.6 0.0
30/06:30pm 12.1 9.7 5.3 63 3.1 NW 7 7 4 4 1019.4 - 0.0
30/06:00pm 15.1 13.6 4.8 50 4.8 W 2 6 1 3 1019.3 1019.3 0.0
30/05:30pm 17.7 14.1 5.0 43 6.1 NE 13 17 7 9 1018.9 - 0.0
30/05:00pm 19.1 15.7 4.1 37 7.1 NE 11 17 6 9 1018.8 1018.8 0.0
30/04:30pm 23.0 21.3 1.9 25 9.9 CALM 0 6 0 3 1018.7 - 0.0
30/04:00pm 23.3 20.0 -1.6 19 10.9 SSW 6 7 3 4 1018.5 1018.5 0.0
30/03:30pm 23.6 20.9 -2.1 18 11.2 WNW 2 7 1 4 1018.2 - 0.0
30/03:00pm 23.4 20.1 -1.5 19 11.0 E 6 11 3 6 1018.3 1018.3 0.0
30/02:30pm 23.8 20.2 -1.9 18 11.3 ESE 7 13 4 7 1018.3 - 0.0
30/02:00pm 23.6 19.5 0.0 21 10.7 S 11 17 6 9 1018.6 1018.6 0.0
30/01:30pm 23.9 20.1 -0.4 20 11.0 NNW 9 13 5 7 1018.8 - 0.0
30/01:00pm 23.2 19.8 -0.3 21 10.6 NW 7 11 4 6 1019.1 1019.1 0.0
30/12:30pm 23.2 20.0 0.9 23 10.3 N 7 17 4 9 1019.6 - 0.0
30/12:00pm 22.1 18.5 0.6 24 9.7 NNW 9 13 5 7 1020.3 1020.3 0.0
30/11:30am 22.0 19.0 0.5 24 9.7 NW 6 11 3 6 1020.8 - 0.0
30/11:00am 21.2 18.4 3.4 31 8.5 NNW 7 13 4 7 1021.4 1021.4 0.0
30/10:30am 20.1 16.4 4.6 36 7.5 NNW 13 17 7 9 1021.9 - 0.0
30/10:00am 17.6 13.9 4.5 42 6.2 N 13 15 7 8 1022.3 1022.3 0.0
30/09:30am 14.5 11.1 5.8 56 4.1 N 13 15 7 8 1022.6 - 0.0
30/09:00am 11.3 8.7 6.2 71 2.4 N 9 13 5 7 1023.0 1023.0 0.0
30/08:30am 8.6 5.6 5.9 83 1.2 N 11 15 6 8 1022.9 - 0.0
30/08:00am 6.9 3.4 5.4 90 0.7 N 13 17 7 9 1022.7 1022.7 0.0
30/07:30am 4.9 0.7 3.6 91 0.5 N 15 17 8 9 1022.5 - 0.0
30/07:00am 3.8 -0.8 3.7 99 0.0 N 17 19 9 10 1022.1 1022.1 0.0
30/06:30am 3.3 -1.0 3.0 98 0.1 N 15 17 8 9 1021.8 - 0.0
30/06:00am 2.6 -1.2 2.0 96 0.2 N 11 13 6 7 1021.6 1021.6 0.0
30/05:30am 3.4 -0.6 2.7 95 0.3 NNE 13 17 7 9 1021.4 - 0.0
30/05:00am 4.3 0.5 3.9 97 0.2 N 13 15 7 8 1021.1 1021.1 0.0
30/04:30am 3.7 0.4 2.7 93 0.4 NNE 9 11 5 6 1020.9 - 0.0
30/04:00am 5.0 0.5 4.1 94 0.4 N 17 19 9 10 1020.8 1020.8 0.0
30/03:30am 4.8 0.6 3.8 93 0.4 N 15 17 8 9 1020.6 - 0.0
30/03:00am 5.0 1.3 4.3 95 0.3 N 13 17 7 9 1020.7 1020.7 0.0
30/02:30am 5.1 0.6 4.2 94 0.4 N 17 17 9 9 1020.8 - 0.0
30/02:00am 4.8 0.9 3.6 92 0.5 N 13 17 7 9 1020.8 1020.8 0.0
30/01:30am 5.8 2.1 4.4 91 0.6 NNE 13 15 7 8 1020.9 - 0.0
30/01:00am 6.2 2.2 4.8 91 0.6 NNE 15 19 8 10 1021.2 1021.2 0.0
30/12:30am 5.8 1.7 4.4 91 0.6 N 15 17 8 9 1021.4 - 0.0
30/12:00am 5.8 2.1 4.3 90 0.6 N 13 15 7 8 1021.5 1021.5 0.0
 
Date/Time
EST
Temp
°C
App
Temp
°C
Dew
Point
Rel
Hum
%
Delta-T
°C
Wind Press
QNH
hPa
Press
MSL
hPa
Rain
since 9 am
mm
Dir
 
Spd
km/h
Gust
km/h
Spd
kts
Gust
kts
29/11:30pm 6.3 2.6 4.5 88 0.8 N 13 17 7 9 1021.6 - 0.0
29/11:00pm 7.1 3.5 4.9 86 1.0 N 13 15 7 8 1021.7 1021.7 0.0
29/10:30pm 7.7 4.5 5.3 85 1.1 N 11 13 6 7 1021.5 - 0.0
29/10:00pm 7.1 4.2 4.9 86 1.0 NNE 9 11 5 6 1021.1 1021.1 0.0
29/09:30pm 8.1 5.5 5.9 86 1.0 N 9 13 5 7 1021.2 - 0.0
29/09:00pm 8.1 5.8 5.9 86 1.0 N 7 11 4 6 1020.9 1020.9 0.0
29/08:30pm 9.3 6.9 5.1 75 1.9 N 7 9 4 5 1020.5 - 0.0
29/08:00pm 10.8 10.0 6.6 75 2.0 CALM 0 0 0 0 1020.3 1020.3 0.0
29/07:30pm 11.8 8.4 6.1 68 2.7 N 13 17 7 9 1019.8 - 0.0
29/07:00pm 13.7 10.8 6.3 61 3.5 NNE 11 17 6 9 1019.6 1019.6 0.0
29/06:30pm 14.6 11.1 7.4 62 3.5 N 15 19 8 10 1019.3 - 0.0
29/06:00pm 16.4 12.2 7.6 56 4.4 NNE 19 26 10 14 1018.9 1018.9 0.0
29/05:30pm 17.2 12.6 5.8 47 5.5 NE 19 26 10 14 1018.8 - 0.0
29/05:00pm 17.5 15.9 2.3 36 6.9 CALM 0 0 0 0 1018.7 1018.7 0.0
29/04:30pm 21.5 19.2 -2.4 20 10.2 CALM 0 0 0 0 1018.7 - 0.0
29/04:00pm 22.2 20.0 -1.8 20 10.4 CALM 0 6 0 3 1018.7 1018.7 0.0
29/03:30pm 22.2 18.4 -1.1 21 10.3 N 9 17 5 9 1018.7 - 0.0
29/03:00pm 22.4 19.1 -1.6 20 10.5 WSW 6 11 3 6 1018.9 1018.9 0.0
29/02:30pm 21.8 18.3 -1.5 21 10.1 SSE 7 11 4 6 1019.1 - 0.0
29/02:00pm 21.9 17.9 -2.0 20 10.3 WSW 9 19 5 10 1019.3 1019.3 0.0
29/01:30pm 21.9 17.8 -0.1 23 9.9 NW 11 19 6 10 1019.6 - 0.0
29/01:00pm 21.2 17.1 -0.1 24 9.5 W 11 17 6 9 1019.9 1019.9 0.0
29/12:30pm 20.6 16.3 1.0 27 8.9 SW 13 17 7 9 1020.1 - 0.0
29/12:00pm 20.1 15.9 1.5 29 8.4 WSW 13 17 7 9 1020.8 1020.8 0.0
29/11:30am 19.6 15.5 2.0 31 8.1 SW 13 20 7 11 1021.4 - 0.0
29/11:00am 18.9 15.1 1.9 32 7.7 WSW 11 15 6 8 1021.9 1021.9 0.0
29/10:30am 18.2 13.7 2.1 34 7.3 WSW 15 22 8 12 1022.2 - 0.0
29/10:00am 16.3 14.2 6.7 53 4.7 SSW 7 11 4 6 1022.4 1022.4 0.0
29/09:30am 14.7 12.6 6.8 59 3.8 N 7 13 4 7 1022.5 - 0.0
29/09:00am 11.4 10.4 7.3 76 2.0 N 2 7 1 4 1022.5 1022.5 0.2
29/08:30am 8.3 7.6 7.1 92 0.6 CALM 0 0 0 0 1022.5 - 0.2
29/08:00am 5.7 4.7 5.6 99 0.0 CALM 0 0 0 0 1022.5 1022.5 0.2
29/07:30am 5.2 2.4 5.2 100 0.0 NNE 9 11 5 6 1022.2 - 0.2
29/07:05am 2.6 -0.7 2.5 99 0.0 N 9 11 5 6 1021.9 - 0.2
29/07:00am 2.1 -1.7 2.0 99 0.0 N 11 13 6 7 1021.8 1021.8 0.2
29/06:59am 1.9 -1.9 1.8 99 0.0 N 11 13 6 7 1021.8 - 0.2
29/06:55am 1.7 -2.1 1.6 99 0.0 N 11 13 6 7 1021.7 - 0.2
29/06:50am 1.9 -1.9 1.8 99 0.0 N 11 15 6 8 1021.7 - 0.2
29/06:49am 1.9 -1.9 1.8 99 0.0 N 11 15 6 8 1021.7 - 0.2
29/06:30am 2.0 -2.2 1.9 99 0.0 N 13 15 7 8 1021.6 - 0.0
29/06:29am 1.9 -2.3 1.8 99 0.0 N 13 15 7 8 1021.6 - 0.0
29/06:27am 1.7 -2.1 1.6 99 0.0 N 11 15 6 8 1021.6 - 0.0
29/06:14am 1.4 -0.8 1.3 99 0.0 N 2 11 1 6 1021.4 - 0.0
29/06:00am 1.7 0.0 1.6 99 0.0 CALM 0 0 0 0 1021.3 1021.3 0.0
29/05:51am 1.2 -0.6 1.1 99 0.0 CALM 0 0 0 0 1021.2 - 0.0
29/05:45am 1.2 -0.6 1.1 99 0.0 CALM 0 0 0 0 1021.2 - 0.0
29/05:41am 1.4 -0.4 1.3 99 0.0 CALM 0 0 0 0 1021.2 - 0.0
29/05:30am 1.0 -2.0 0.9 99 0.0 N 6 9 3 5 1021.1 - 0.0
29/05:00am 3.3 0.5 3.2 99 0.0 NNE 7 9 4 5 1020.8 1020.8 0.0
29/04:35am 3.9 0.1 3.8 99 0.0 N 13 17 7 9 1020.5 - 0.0
29/04:30am 3.8 0.0 3.7 99 0.0 N 13 17 7 9 1020.4 - 0.0
29/04:00am 3.8 0.0 3.7 99 0.0 N 13 17 7 9 1020.2 1020.2 0.0
29/03:51am 3.0 -0.2 2.9 99 0.0 N 9 13 5 7 1020.1 - 0.0
29/03:41am 2.5 -1.2 2.4 99 0.0 N 11 15 6 8 1020.1 - 0.0
29/03:40am 2.4 -1.3 2.3 99 0.0 N 11 15 6 8 1020.1 - 0.0
29/03:32am 2.1 -1.3 2.0 99 0.0 N 9 11 5 6 1020.2 - 0.0
29/03:30am 2.1 -1.3 2.0 99 0.0 N 9 13 5 7 1020.1 - 0.0
29/03:08am 3.8 0.3 3.7 99 0.0 N 11 13 6 7 1020.2 - 0.0
29/03:07am 3.9 0.5 3.8 99 0.0 N 11 13 6 7 1020.2 - 0.0
29/03:00am 4.4 1.1 4.3 99 0.0 N 11 13 6 7 1020.1 1020.1 0.0
29/02:41am 4.5 1.2 4.4 99 0.0 NNE 11 13 6 7 1020.1 - 0.0
29/02:35am 4.3 0.9 4.2 99 0.0 N 11 13 6 7 1020.1 - 0.0
29/02:30am 4.2 0.8 4.1 99 0.0 N 11 13 6 7 1020.1 - 0.0
29/02:29am 4.1 0.7 4.0 99 0.0 N 11 13 6 7 1020.1 - 0.0
29/02:20am 4.3 0.9 4.2 99 0.0 N 11 13 6 7 1020.2 - 0.0
29/02:07am 5.0 1.4 4.9 99 0.0 N 13 13 7 7 1020.1 - 0.0
29/02:00am 4.4 1.1 4.3 99 0.0 N 11 13 6 7 1020.2 1020.2 0.0
29/01:47am 5.0 1.4 4.9 99 0.0 N 13 13 7 7 1020.2 - 0.0
29/01:41am 5.0 1.8 4.9 99 0.0 N 11 13 6 7 1020.2 - 0.0
29/01:30am 5.1 1.9 5.0 99 0.0 N 11 13 6 7 1020.4 - 0.0
29/01:13am 5.6 2.5 5.5 99 0.0 N 11 13 6 7 1020.5 - 0.0
29/01:00am 5.9 2.5 5.8 99 0.0 N 13 15 7 8 1020.5 1020.5 0.0
29/12:35am 6.4 3.1 6.3 99 0.0 N 13 17 7 9 1020.7 - 0.0
29/12:30am 6.2 3.2 6.1 99 0.0 N 11 15 6 8 1020.7 - 0.0
29/12:26am 6.0 3.0 5.9 99 0.0 N 11 13 6 7 1020.7 - 0.0
29/12:20am 6.4 3.1 6.3 99 0.0 N 13 17 7 9 1020.7 - 0.0
29/12:00am 7.8 4.4 7.7 99 0.0 N 15 17 8 9 1020.8 1020.8 0.0
 
Date/Time
EST
Temp
°C
App
Temp
°C
Dew
Point
Rel
Hum
%
Delta-T
°C
Wind Press
QNH
hPa
Press
MSL
hPa
Rain
since 9 am
mm
Dir
 
Spd
km/h
Gust
km/h
Spd
kts
Gust
kts
28/11:30pm 8.2 4.9 8.1 99 0.0 N 15 17 8 9 1020.9 - 0.0
28/11:00pm 7.9 4.8 7.3 96 0.3 N 13 15 7 8 1021.2 1021.2 0.0
28/10:30pm 8.5 5.7 7.1 91 0.7 N 11 13 6 7 1021.3 - 0.0
28/10:00pm 9.7 7.5 8.0 89 0.8 NNE 9 11 5 6 1021.4 1021.4 0.0
28/09:30pm 9.9 7.7 7.8 87 1.0 NNE 9 11 5 6 1021.2 - 0.0
28/09:00pm 10.0 7.4 7.6 85 1.1 N 11 15 6 8 1021.3 1021.3 0.0
28/08:30pm 11.3 7.3 8.3 82 1.5 NNW 19 20 10 11 1021.2 - 0.0
28/08:00pm 10.8 6.9 7.3 79 1.7 N 17 19 9 10 1020.8 1020.8 0.0
28/07:30pm 12.5 9.5 9.3 81 1.6 N 15 17 8 9 1020.5 - 0.0
28/07:00pm 12.2 9.0 8.3 77 1.9 N 15 17 8 9 1020.4 1020.4 0.0
28/06:30pm 14.2 11.9 9.0 71 2.6 NNW 11 13 6 7 1020.1 - 0.0
28/06:00pm 16.3 13.9 8.8 61 3.8 NNE 11 17 6 9 1019.8 1019.8 0.0
28/05:30pm 17.4 15.3 9.6 60 4.1 NE 11 17 6 9 1019.7 - 0.0
28/05:00pm 19.0 16.6 6.8 45 6.1 N 9 13 5 7 1019.5 1019.5 0.0
28/04:30pm 21.5 19.1 7.0 39 7.4 N 9 13 5 7 1019.4 - 0.0
28/04:00pm 22.2 20.6 6.4 36 8.0 NNE 4 11 2 6 1019.3 1019.3 0.0
28/03:30pm 22.5 19.2 6.3 35 8.2 NW 13 20 7 11 1019.3 - 0.0
28/03:00pm 22.6 19.3 6.4 35 8.2 NNW 13 22 7 12 1019.4 1019.4 0.0
28/02:30pm 22.5 19.9 6.3 35 8.2 WNW 9 17 5 9 1019.6 - 0.0
28/02:00pm 22.1 18.0 6.3 36 8.0 WNW 17 26 9 14 1019.8 1019.8 0.0

Other Formats:

Comma delimited format used in spreadsheet applications
http://www.bom.gov.au/fwo/IDN60801/IDN60801.94572.axf

JavaScript Object Notation format (JSON) in row-major order
http://www.bom.gov.au/fwo/IDN60801/IDN60801.94572.json